• Join FlightAware (Why Join?)
  • Login
  • US Flag 
02:57PM EDT


 

Airport Tracker/Info


-or-


 

Live Flight TrackerFlight Track Log ✈ AAL2137 ✈ 18-Apr-2013 ✈ KBDL - KDFW

Flight Track Log - Related Links

Times and Time Zones

All times are in EDT time to prevent confusion due to time zone crossing. See the AAL2137 flight status page for this flight to view local times or setup timezone preferences in your user account.

Time Position Orientation Groundspeed Altitude Reporting Facility
EDT Latitude Longitude Course Direction KTS MPH feet Rate Location/Type
01:17PM 41.9269 -72.7081 236° Southwest 162 186 1,200  Level Boston Center
01:18PM 41.9228 -72.7275 254° West 173 199 1,800 1,260 Climbing Boston Center
01:19PM 41.9247 -72.7833 273° West 182 209 2,700 2,400 Climbing Boston Center
01:20PM 41.9167 -73.0091 270° West  Level FlightAware Approximate
01:21PM 41.9089 -73.1179 264° West  Level FlightAware Approximate
01:21PM 41.9167 -72.9966 270° West  Level FlightAware Approximate
01:22PM 41.9005 -73.2266 264° West  Level FlightAware Approximate
01:23PM 41.8852 -73.3297 236° Southwest  Level FlightAware Approximate
01:23PM 41.9144 -73.1989 200° South 318 366 13,500  Level Boston Center
01:24PM 41.8925 -73.3325 258° West 337 388 16,200 2,040 Climbing Boston Center
01:25PM 41.8394 -73.4461 238° Southwest 342 394 17,700 1,440 Climbing Boston Center
01:26PM 41.7925 -73.5539 240° Southwest 365 420 19,200 1,680 Climbing Boston Center
01:27PM 41.7106 -73.6331 216° Southwest 366 421 21,100 1,860 Climbing Boston Center
01:28PM 41.6870 -73.6232 200° South  Level FlightAware Approximate
01:28PM 41.6075 -73.7144 211° Southwest 379 436 23,000  Level Boston Center
01:29PM 41.5147 -73.7856 210° Southwest 397 457 24,500 1,500 Climbing New York Center
01:29PM 41.4189 -73.8669 212° Southwest 412 474 26,000 1,500 Climbing New York Center
01:31PM 41.3941 -73.9721 233° Southwest  Level Estimated
01:38PM 40.9782 -74.4108 237° Southwest  Level FlightAware Approximate
01:39PM 40.9332 -74.5005 236° Southwest  Level FlightAware Approximate
01:40PM 40.8895 -74.5913 238° Southwest  Level FlightAware Approximate
01:41PM 40.8466 -74.6826 238° Southwest  Level FlightAware Approximate
01:42PM 40.8036 -74.7739 238° Southwest  Level FlightAware Approximate
01:43PM 40.7657 -74.8686 237° Southwest  Level FlightAware Approximate
01:44PM 40.7210 -74.9583 237° Southwest  Level FlightAware Approximate
01:45PM 40.6761 -75.0478 237° Southwest  Level FlightAware Approximate
01:46PM 40.6368 -75.1415 242° Southwest  Level FlightAware Approximate
01:47PM 40.5990 -75.2364 242° Southwest  Level FlightAware Approximate
01:48PM 40.5610 -75.3311 242° Southwest  Level FlightAware Approximate
01:49PM 40.5212 -75.4243 237° Southwest  Level FlightAware Approximate
01:50PM 40.4766 -75.5137 237° Southwest  Level FlightAware Approximate
01:51PM 40.4319 -75.6030 237° Southwest  Level FlightAware Approximate
01:52PM 40.3896 -75.6942 240° Southwest  Level FlightAware Approximate
01:53PM 40.3485 -75.7863 237° Southwest  Level FlightAware Approximate
01:54PM 40.3055 -75.8769 239° Southwest  Level FlightAware Approximate
01:55PM 40.2634 -75.9681 239° Southwest  Level FlightAware Approximate
01:56PM 40.2212 -76.0591 239° Southwest  Level FlightAware Approximate
01:57PM 40.1789 -76.1501 239° Southwest  Level FlightAware Approximate
01:58PM 40.1365 -76.2409 239° Southwest  Level FlightAware Approximate
01:59PM 40.0930 -76.3308 237° Southwest  Level FlightAware Approximate
02:00PM 40.0485 -76.4197 237° Southwest  Level FlightAware Approximate
02:01PM 40.0047 -76.5092 239° Southwest  Level FlightAware Approximate
02:02PM 39.9628 -76.6002 239° Southwest  Level FlightAware Approximate
02:03PM 39.9208 -76.6910 239° Southwest  Level FlightAware Approximate
02:04PM 39.8797 -76.7825 240° Southwest  Level FlightAware Approximate
02:05PM 39.8386 -76.8739 240° Southwest  Level FlightAware Approximate
02:06PM 39.7974 -76.9652 240° Southwest  Level FlightAware Approximate
02:07PM 39.7561 -77.0564 240° Southwest  Level FlightAware Approximate
02:08PM 39.7148 -77.1475 239° Southwest  Level FlightAware Approximate
02:09PM 39.6713 -77.2367 232° Southwest  Level FlightAware Approximate
02:10PM 39.6232 -77.3217 239° Southwest  Level FlightAware Approximate
02:11PM 39.5812 -77.4120 239° Southwest  Level FlightAware Approximate
02:12PM 39.5390 -77.5022 239° Southwest  Level FlightAware Approximate
02:13PM 39.4968 -77.5924 239° Southwest  Level FlightAware Approximate
02:14PM 39.4545 -77.6824 239° Southwest  Level FlightAware Approximate
02:15PM 39.4122 -77.7723 239° Southwest  Level FlightAware Approximate
02:16PM 39.3713 -77.8632 242° Southwest  Level FlightAware Approximate
02:17PM 39.3337 -77.9564 242° Southwest  Level FlightAware Approximate
02:18PM 39.2960 -78.0496 242° Southwest  Level FlightAware Approximate
02:19PM 39.2582 -78.1426 242° Southwest  Level FlightAware Approximate
02:20PM 39.2203 -78.2355 242° Southwest  Level FlightAware Approximate
02:21PM 39.1824 -78.3284 242° Southwest  Level FlightAware Approximate
02:22PM 39.1443 -78.4211 242° Southwest  Level FlightAware Approximate
02:23PM 39.1062 -78.5137 242° Southwest  Level FlightAware Approximate
02:24PM 39.0680 -78.6062 242° Southwest  Level FlightAware Approximate
02:25PM 39.0297 -78.6986 242° Southwest  Level FlightAware Approximate
02:26PM 38.9913 -78.7909 242° Southwest  Level FlightAware Approximate
02:27PM 38.9534 -78.8834 243° Southwest  Level FlightAware Approximate
02:28PM 38.9163 -78.9764 243° Southwest  Level FlightAware Approximate
02:29PM 38.8791 -79.0694 243° Southwest  Level FlightAware Approximate
02:30PM 38.8418 -79.1622 243° Southwest  Level FlightAware Approximate
02:31PM 38.8190 -79.2618 257° West  Level FlightAware Approximate
02:32PM 38.8004 -79.3635 257° West  Level FlightAware Approximate
02:33PM 38.7818 -79.4650 257° West  Level FlightAware Approximate
02:34PM 38.7630 -79.5665 257° West  Level FlightAware Approximate
02:35PM 38.7441 -79.6680 257° West  Level FlightAware Approximate
02:36PM 38.7252 -79.7694 257° West  Level FlightAware Approximate
02:37PM 38.7062 -79.8707 256° West  Level FlightAware Approximate
02:38PM 38.6870 -79.9720 256° West  Level FlightAware Approximate
02:39PM 38.6678 -80.0732 256° West  Level FlightAware Approximate
02:40PM 38.6485 -80.1744 256° West  Level FlightAware Approximate
02:41PM 38.6292 -80.2756 256° West  Level FlightAware Approximate
02:42PM 38.6098 -80.3767 256° West  Level FlightAware Approximate
02:43PM 38.5904 -80.4777 256° West  Level FlightAware Approximate
02:44PM 38.5708 -80.5787 256° West  Level FlightAware Approximate
02:45PM 38.5512 -80.6796 256° West  Level FlightAware Approximate
02:46PM 38.5314 -80.7805 256° West  Level FlightAware Approximate
02:47PM 38.5116 -80.8813 256° West  Level FlightAware Approximate
02:48PM 38.4917 -80.9821 256° West  Level FlightAware Approximate
02:49PM 38.4717 -81.0828 256° West  Level FlightAware Approximate
02:50PM 38.4516 -81.1834 256° West  Level FlightAware Approximate
02:51PM 38.4314 -81.2840 256° West  Level FlightAware Approximate
02:52PM 38.4112 -81.3846 256° West  Level FlightAware Approximate
02:53PM 38.3909 -81.4850 256° West  Level FlightAware Approximate
02:54PM 38.3704 -81.5855 255° West  Level FlightAware Approximate
02:55PM 38.3499 -81.6858 255° West  Level FlightAware Approximate
02:56PM 38.3282 -81.7857 251° West  Level FlightAware Approximate
02:57PM 38.3017 -81.8837 251° West  Level FlightAware Approximate
02:58PM 38.2751 -81.9816 251° West  Level FlightAware Approximate
02:59PM 38.2484 -82.0795 251° West  Level FlightAware Approximate
03:00PM 38.2216 -82.1773 251° West  Level FlightAware Approximate
03:01PM 38.1948 -82.2750 251° West  Level FlightAware Approximate
03:02PM 38.1676 -82.3725 250° West  Level FlightAware Approximate
03:03PM 38.1400 -82.4698 250° West  Level FlightAware Approximate
03:04PM 38.1124 -82.5670 250° West  Level FlightAware Approximate
03:05PM 38.0847 -82.6642 250° West  Level FlightAware Approximate
03:06PM 38.0569 -82.7613 250° West  Level FlightAware Approximate
03:07PM 38.0290 -82.8583 250° West  Level FlightAware Approximate
03:08PM 38.0011 -82.9553 250° West  Level FlightAware Approximate
03:09PM 37.9731 -83.0521 250° West  Level FlightAware Approximate
03:10PM 37.9451 -83.1490 250° West  Level FlightAware Approximate
03:11PM 37.9171 -83.2458 250° West  Level FlightAware Approximate
03:12PM 37.8889 -83.3425 250° West  Level FlightAware Approximate
03:13PM 37.8607 -83.4391 250° West  Level FlightAware Approximate
03:14PM 37.8324 -83.5357 250° West  Level FlightAware Approximate
03:15PM 37.8040 -83.6322 250° West  Level FlightAware Approximate
03:16PM 37.7756 -83.7286 250° West  Level FlightAware Approximate
03:17PM 37.7470 -83.8249 249° West  Level FlightAware Approximate
03:18PM 37.7184 -83.9212 249° West  Level FlightAware Approximate
03:19PM 37.6897 -84.0174 249° West  Level FlightAware Approximate
03:20PM 37.6610 -84.1135 249° West  Level FlightAware Approximate
03:21PM 37.6311 -84.2090 248° West  Level FlightAware Approximate
03:22PM 37.6006 -84.3042 248° West  Level FlightAware Approximate
03:23PM 37.5700 -84.3993 248° West  Level FlightAware Approximate
03:24PM 37.5393 -84.4943 248° West  Level FlightAware Approximate
03:25PM 37.5085 -84.5892 248° West  Level FlightAware Approximate
03:26PM 37.4754 -84.6826 238° Southwest  Level FlightAware Approximate
03:27PM 37.4463 -84.7777 252° West  Level FlightAware Approximate
03:28PM 37.4207 -84.8750 252° West  Level FlightAware Approximate
03:29PM 37.3951 -84.9722 252° West  Level FlightAware Approximate
03:30PM 37.3668 -85.0680 248° West  Level FlightAware Approximate
03:31PM 37.3362 -85.1628 248° West  Level FlightAware Approximate
03:32PM 37.3054 -85.2575 248° West  Level FlightAware Approximate
03:33PM 37.2747 -85.3521 248° West  Level FlightAware Approximate
03:34PM 37.2438 -85.4467 248° West  Level FlightAware Approximate
03:35PM 37.2129 -85.5412 248° West  Level FlightAware Approximate
03:36PM 37.1819 -85.6356 248° West  Level FlightAware Approximate
03:37PM 37.1508 -85.7299 248° West  Level FlightAware Approximate
03:38PM 37.1196 -85.8241 248° West  Level FlightAware Approximate
03:39PM 37.0885 -85.9183 248° West  Level FlightAware Approximate
03:40PM 37.0573 -86.0124 247° West  Level FlightAware Approximate
03:41PM 37.0260 -86.1065 247° West  Level FlightAware Approximate
03:42PM 36.9947 -86.2005 247° West  Level FlightAware Approximate
03:43PM 36.9633 -86.2944 247° West  Level FlightAware Approximate
03:44PM 36.9318 -86.3883 247° West  Level FlightAware Approximate
03:45PM 36.8993 -86.4815 246° West  Level FlightAware Approximate
03:46PM 36.8658 -86.5742 246° West  Level FlightAware Approximate
03:47PM 36.8322 -86.6667 246° West  Level FlightAware Approximate
03:48PM 36.7986 -86.7592 246° West  Level FlightAware Approximate
03:49PM 36.7649 -86.8516 246° West  Level FlightAware Approximate
03:50PM 36.7312 -86.9440 245° Southwest  Level FlightAware Approximate
03:51PM 36.6973 -87.0362 245° Southwest  Level FlightAware Approximate
03:52PM 36.6634 -87.1284 245° Southwest  Level FlightAware Approximate
03:53PM 36.6294 -87.2205 245° Southwest  Level FlightAware Approximate
03:54PM 36.5955 -87.3126 246° West  Level FlightAware Approximate
03:55PM 36.5620 -87.4049 246° West  Level FlightAware Approximate
03:56PM 36.5285 -87.4971 246° West  Level FlightAware Approximate
03:57PM 36.4949 -87.5893 246° West  Level FlightAware Approximate
03:58PM 36.4612 -87.6814 245° Southwest  Level FlightAware Approximate
03:59PM 36.4270 -87.7731 245° Southwest  Level FlightAware Approximate
04:00PM 36.3927 -87.8647 245° Southwest  Level FlightAware Approximate
04:01PM 36.3584 -87.9563 245° Southwest  Level FlightAware Approximate
04:02PM 36.3240 -88.0478 245° Southwest  Level FlightAware Approximate
04:03PM 36.2895 -88.1392 245° Southwest  Level FlightAware Approximate
04:04PM 36.2550 -88.2305 245° Southwest  Level FlightAware Approximate
04:05PM 36.2203 -88.3218 245° Southwest  Level FlightAware Approximate
04:06PM 36.1857 -88.4129 245° Southwest  Level FlightAware Approximate
04:07PM 36.1509 -88.5040 245° Southwest  Level FlightAware Approximate
04:08PM 36.1164 -88.5952 245° Southwest  Level FlightAware Approximate
04:09PM 36.0821 -88.6865 245° Southwest  Level FlightAware Approximate
04:10PM 36.0477 -88.7776 245° Southwest  Level FlightAware Approximate
04:11PM 36.0132 -88.8687 245° Southwest  Level FlightAware Approximate
04:12PM 35.9787 -88.9598 245° Southwest  Level FlightAware Approximate
04:13PM 35.9441 -89.0507 245° Southwest  Level FlightAware Approximate
04:14PM 35.9094 -89.1416 245° Southwest  Level FlightAware Approximate
04:15PM 35.8747 -89.2323 245° Southwest  Level FlightAware Approximate
04:16PM 35.8399 -89.3230 245° Southwest  Level FlightAware Approximate
04:17PM 35.8048 -89.4135 244° Southwest  Level FlightAware Approximate
04:18PM 35.7693 -89.5037 244° Southwest  Level FlightAware Approximate
04:19PM 35.7337 -89.5938 244° Southwest  Level FlightAware Approximate
04:20PM 35.6980 -89.6838 244° Southwest  Level FlightAware Approximate
04:21PM 35.6622 -89.7738 244° Southwest  Level FlightAware Approximate
04:22PM 35.6264 -89.8636 244° Southwest  Level FlightAware Approximate
04:23PM 35.5905 -89.9534 244° Southwest  Level FlightAware Approximate
04:24PM 35.5546 -90.0431 244° Southwest  Level FlightAware Approximate
04:25PM 35.5186 -90.1327 244° Southwest  Level FlightAware Approximate
04:26PM 35.4825 -90.2223 244° Southwest  Level FlightAware Approximate
04:27PM 35.4464 -90.3117 244° Southwest  Level FlightAware Approximate
04:28PM 35.4101 -90.4011 244° Southwest  Level FlightAware Approximate
04:29PM 35.3739 -90.4904 244° Southwest  Level FlightAware Approximate
04:30PM 35.3375 -90.5796 243° Southwest  Level FlightAware Approximate
04:31PM 35.3011 -90.6687 243° Southwest  Level FlightAware Approximate
04:32PM 35.2646 -90.7578 243° Southwest  Level FlightAware Approximate
04:33PM 35.2281 -90.8467 243° Southwest  Level FlightAware Approximate
04:34PM 35.1915 -90.9356 243° Southwest  Level FlightAware Approximate
04:35PM 35.1549 -91.0244 243° Southwest  Level FlightAware Approximate
04:36PM 35.1181 -91.1132 243° Southwest  Level FlightAware Approximate
04:37PM 35.0821 -91.2023 244° Southwest  Level FlightAware Approximate
04:38PM 35.0461 -91.2914 244° Southwest  Level FlightAware Approximate
04:39PM 35.0100 -91.3804 244° Southwest  Level FlightAware Approximate
04:40PM 34.9738 -91.4693 244° Southwest  Level FlightAware Approximate
04:41PM 34.9376 -91.5581 244° Southwest  Level FlightAware Approximate
04:42PM 34.9013 -91.6469 244° Southwest  Level FlightAware Approximate
04:43PM 34.8623 -91.7339 241° Southwest  Level FlightAware Approximate
04:44PM 34.8232 -91.8208 241° Southwest  Level FlightAware Approximate
04:45PM 34.7841 -91.9077 241° Southwest  Level FlightAware Approximate
04:46PM 34.7449 -91.9944 241° Southwest  Level FlightAware Approximate
04:47PM 34.7056 -92.0810 241° Southwest  Level FlightAware Approximate
04:48PM 34.6664 -92.1677 253° West  Level FlightAware Approximate
04:49PM 34.6425 -92.2622 253° West  Level FlightAware Approximate
04:50PM 34.6185 -92.3566 253° West  Level FlightAware Approximate
04:51PM 34.5944 -92.4510 253° West  Level FlightAware Approximate
04:52PM 34.5703 -92.5453 253° West  Level FlightAware Approximate
04:53PM 34.5461 -92.6396 253° West  Level FlightAware Approximate
04:54PM 34.5218 -92.7338 253° West  Level FlightAware Approximate
04:55PM 34.4974 -92.8280 253° West  Level FlightAware Approximate
04:56PM 34.4730 -92.9221 253° West  Level FlightAware Approximate
04:57PM 34.4485 -93.0162 252° West  Level FlightAware Approximate
04:58PM 34.4239 -93.1102 252° West  Level FlightAware Approximate
04:59PM 34.3993 -93.2041 252° West  Level FlightAware Approximate
05:00PM 34.3745 -93.2980 252° West  Level FlightAware Approximate
05:01PM 34.3498 -93.3919 252° West  Level FlightAware Approximate
05:02PM 34.3222 -93.4958 252° West  Level FlightAware Approximate
05:03PM 34.2905 -93.5993 249° West  Level FlightAware Approximate
05:04PM 34.2578 -93.7024 249° West  Level FlightAware Approximate
05:05PM 34.2249 -93.8054 249° West  Level FlightAware Approximate
05:06PM 34.1932 -93.9088 252° West  Level FlightAware Approximate
05:07PM 34.1652 -94.0133 252° West  Level FlightAware Approximate
05:08PM 34.1371 -94.1177 252° West  Level FlightAware Approximate
05:09PM 34.1090 -94.2220 252° West  Level FlightAware Approximate
05:10PM 34.0811 -94.3264 254° West  Level FlightAware Approximate
05:11PM 34.0568 -94.4321 254° West  Level FlightAware Approximate
05:12PM 34.0319 -94.5376 248° West  Level FlightAware Approximate
05:13PM 33.9983 -94.6394 251° West  Level FlightAware Approximate
05:14PM 33.9688 -94.7431 251° West  Level FlightAware Approximate
05:15PM 33.9389 -94.8480 251° West  Level FlightAware Approximate
05:16PM 33.9090 -94.9528 251° West  Level FlightAware Approximate
05:17PM 33.8789 -95.0576 251° West  Level FlightAware Approximate
05:18PM 33.8477 -95.1617 256° West  Level FlightAware Approximate
05:19PM 33.8228 -95.2682 250° West  Level FlightAware Approximate
05:20PM 33.7912 -95.3722 250° West  Level FlightAware Approximate
05:21PM 33.7596 -95.4762 250° West  Level FlightAware Approximate
05:22PM 33.7279 -95.5800 250° West  Level FlightAware Approximate
05:23PM 33.6997 -95.6843 250° West  Level FlightAware Approximate
05:24PM 33.6679 -95.7881 250° West  Level FlightAware Approximate
05:25PM 33.6361 -95.8918 250° West  Level FlightAware Approximate
05:26PM 33.6042 -95.9954 250° West  Level FlightAware Approximate
05:27PM 33.5721 -96.0990 250° West  Level FlightAware Approximate
05:28PM 33.5419 -96.2033 251° West  Level FlightAware Approximate
05:29PM 33.4830 -96.2837 220° Southwest  Level FlightAware Approximate
05:30PM 33.4124 -96.3543 220° Southwest  Level FlightAware Approximate
05:31PM 33.3555 -96.4390 239° Southwest  Level FlightAware Approximate
05:32PM 33.2876 -96.5124 220° Southwest  Level FlightAware Approximate
05:33PM 33.2215 -96.5889 224° Southwest  Level FlightAware Approximate
05:34PM 33.1536 -96.6630 220° Southwest  Level FlightAware Approximate
05:35PM 33.0888 -96.7407 227° Southwest  Level FlightAware Approximate
05:36PM 33.0261 -96.8212 227° Southwest  Level FlightAware Approximate